sensor_id;sensor_type;location;lat;lon;timestamp;temperature;humidity
14101;DHT22;7127;49.372;8.166;2024-03-02T00:00:49;10.30;53.40
14101;DHT22;7127;49.372;8.166;2024-03-02T00:03:16;10.30;53.40
14101;DHT22;7127;49.372;8.166;2024-03-02T00:05:47;10.30;53.40
14101;DHT22;7127;49.372;8.166;2024-03-02T00:08:22;10.30;53.30
14101;DHT22;7127;49.372;8.166;2024-03-02T00:10:49;10.30;53.30
14101;DHT22;7127;49.372;8.166;2024-03-02T00:13:16;10.20;53.30
14101;DHT22;7127;49.372;8.166;2024-03-02T00:15:46;10.20;53.30
14101;DHT22;7127;49.372;8.166;2024-03-02T00:18:16;10.20;53.40
14101;DHT22;7127;49.372;8.166;2024-03-02T00:20:46;10.20;53.40
14101;DHT22;7127;49.372;8.166;2024-03-02T00:23:15;10.10;53.30
14101;DHT22;7127;49.372;8.166;2024-03-02T00:25:44;10.10;53.30
14101;DHT22;7127;49.372;8.166;2024-03-02T00:28:16;10.10;53.40
14101;DHT22;7127;49.372;8.166;2024-03-02T00:30:51;10.10;53.40
14101;DHT22;7127;49.372;8.166;2024-03-02T00:33:19;10.10;53.60
14101;DHT22;7127;49.372;8.166;2024-03-02T00:35:49;10.10;53.40
14101;DHT22;7127;49.372;8.166;2024-03-02T00:38:16;10.00;53.30
14101;DHT22;7127;49.372;8.166;2024-03-02T00:40:44;10.00;53.40
14101;DHT22;7127;49.372;8.166;2024-03-02T00:46:11;10.00;53.50
14101;DHT22;7127;49.372;8.166;2024-03-02T00:48:38;9.90;54.30
14101;DHT22;7127;49.372;8.166;2024-03-02T00:51:08;9.90;54.30
14101;DHT22;7127;49.372;8.166;2024-03-02T00:53:35;9.90;54.30
14101;DHT22;7127;49.372;8.166;2024-03-02T00:56:02;9.90;54.30
14101;DHT22;7127;49.372;8.166;2024-03-02T00:58:28;9.80;54.20
14101;DHT22;7127;49.372;8.166;2024-03-02T01:00:55;9.80;54.40
14101;DHT22;7127;49.372;8.166;2024-03-02T01:03:22;9.80;54.30
14101;DHT22;7127;49.372;8.166;2024-03-02T01:05:49;9.70;54.50
14101;DHT22;7127;49.372;8.166;2024-03-02T01:08:18;9.70;54.60
14101;DHT22;7127;49.372;8.166;2024-03-02T01:10:44;9.70;54.50
14101;DHT22;7127;49.372;8.166;2024-03-02T01:13:11;9.60;54.50
14101;DHT22;7127;49.372;8.166;2024-03-02T01:15:38;9.60;54.50
14101;DHT22;7127;49.372;8.166;2024-03-02T01:18:05;9.70;54.70
14101;DHT22;7127;49.372;8.166;2024-03-02T01:20:31;9.60;54.70
14101;DHT22;7127;49.372;8.166;2024-03-02T01:22:58;9.60;54.60
14101;DHT22;7127;49.372;8.166;2024-03-02T01:25:27;9.60;54.60
14101;DHT22;7127;49.372;8.166;2024-03-02T01:27:53;9.60;54.80
14101;DHT22;7127;49.372;8.166;2024-03-02T01:30:20;9.60;54.80
14101;DHT22;7127;49.372;8.166;2024-03-02T01:32:47;9.60;54.70
14101;DHT22;7127;49.372;8.166;2024-03-02T01:35:14;9.60;54.50
14101;DHT22;7127;49.372;8.166;2024-03-02T01:37:41;9.50;54.50
14101;DHT22;7127;49.372;8.166;2024-03-02T01:40:09;9.50;54.50
14101;DHT22;7127;49.372;8.166;2024-03-02T01:42:38;9.50;54.40
14101;DHT22;7127;49.372;8.166;2024-03-02T01:45:06;9.50;54.50
14101;DHT22;7127;49.372;8.166;2024-03-02T01:47:33;9.50;54.60
14101;DHT22;7127;49.372;8.166;2024-03-02T01:50:00;9.40;54.60
14101;DHT22;7127;49.372;8.166;2024-03-02T01:52:27;9.40;54.60
14101;DHT22;7127;49.372;8.166;2024-03-02T01:54:55;9.40;54.70
14101;DHT22;7127;49.372;8.166;2024-03-02T01:57:21;9.30;54.70
14101;DHT22;7127;49.372;8.166;2024-03-02T01:59:49;9.40;54.90
14101;DHT22;7127;49.372;8.166;2024-03-02T02:02:17;9.40;54.90
14101;DHT22;7127;49.372;8.166;2024-03-02T02:04:43;9.30;54.60
14101;DHT22;7127;49.372;8.166;2024-03-02T02:07:10;9.30;54.80
14101;DHT22;7127;49.372;8.166;2024-03-02T02:09:39;9.30;54.90
14101;DHT22;7127;49.372;8.166;2024-03-02T02:12:06;9.30;55.00
14101;DHT22;7127;49.372;8.166;2024-03-02T02:14:33;9.30;55.00
14101;DHT22;7127;49.372;8.166;2024-03-02T02:17:01;9.20;54.90
14101;DHT22;7127;49.372;8.166;2024-03-02T02:19:28;9.30;55.10
14101;DHT22;7127;49.372;8.166;2024-03-02T02:21:56;9.30;55.20
14101;DHT22;7127;49.372;8.166;2024-03-02T02:24:23;9.30;55.10
14101;DHT22;7127;49.372;8.166;2024-03-02T02:26:50;9.30;55.10
14101;DHT22;7127;49.372;8.166;2024-03-02T02:29:16;9.30;55.20
14101;DHT22;7127;49.372;8.166;2024-03-02T02:31:43;9.30;55.60
14101;DHT22;7127;49.372;8.166;2024-03-02T02:34:10;9.30;55.10
14101;DHT22;7127;49.372;8.166;2024-03-02T02:36:38;9.20;55.00
14101;DHT22;7127;49.372;8.166;2024-03-02T02:39:09;9.20;55.00
14101;DHT22;7127;49.372;8.166;2024-03-02T02:41:38;9.20;55.00
14101;DHT22;7127;49.372;8.166;2024-03-02T02:44:05;9.20;55.00
14101;DHT22;7127;49.372;8.166;2024-03-02T02:46:32;9.20;55.10
14101;DHT22;7127;49.372;8.166;2024-03-02T02:48:58;9.20;55.00
14101;DHT22;7127;49.372;8.166;2024-03-02T02:51:25;9.20;55.10
14101;DHT22;7127;49.372;8.166;2024-03-02T02:53:52;9.20;55.00
14101;DHT22;7127;49.372;8.166;2024-03-02T02:56:20;9.20;55.10
14101;DHT22;7127;49.372;8.166;2024-03-02T02:58:47;9.20;55.10
14101;DHT22;7127;49.372;8.166;2024-03-02T03:01:15;9.20;55.00
14101;DHT22;7127;49.372;8.166;2024-03-02T03:03:42;9.10;55.10
14101;DHT22;7127;49.372;8.166;2024-03-02T03:06:09;9.10;55.10
14101;DHT22;7127;49.372;8.166;2024-03-02T03:08:36;9.10;55.20
14101;DHT22;7127;49.372;8.166;2024-03-02T03:11:03;9.10;55.40
14101;DHT22;7127;49.372;8.166;2024-03-02T03:13:31;9.10;55.30
14101;DHT22;7127;49.372;8.166;2024-03-02T03:15:58;9.00;55.20
14101;DHT22;7127;49.372;8.166;2024-03-02T03:18:25;9.00;55.20
14101;DHT22;7127;49.372;8.166;2024-03-02T03:20:52;9.00;55.50
14101;DHT22;7127;49.372;8.166;2024-03-02T03:23:18;9.00;55.30
14101;DHT22;7127;49.372;8.166;2024-03-02T03:25:46;9.00;55.40
14101;DHT22;7127;49.372;8.166;2024-03-02T03:28:13;9.00;55.30
14101;DHT22;7127;49.372;8.166;2024-03-02T03:30:41;9.00;55.20
14101;DHT22;7127;49.372;8.166;2024-03-02T03:33:08;9.00;55.20
14101;DHT22;7127;49.372;8.166;2024-03-02T03:35:36;9.00;55.10
14101;DHT22;7127;49.372;8.166;2024-03-02T03:38:04;9.00;55.10
14101;DHT22;7127;49.372;8.166;2024-03-02T03:40:31;8.90;55.10
14101;DHT22;7127;49.372;8.166;2024-03-02T03:42:58;8.90;55.20
14101;DHT22;7127;49.372;8.166;2024-03-02T03:45:25;8.90;55.20
14101;DHT22;7127;49.372;8.166;2024-03-02T03:47:54;8.80;55.20
14101;DHT22;7127;49.372;8.166;2024-03-02T03:50:21;8.80;55.10
14101;DHT22;7127;49.372;8.166;2024-03-02T03:52:48;8.80;55.20
14101;DHT22;7127;49.372;8.166;2024-03-02T03:55:14;8.80;55.40
14101;DHT22;7127;49.372;8.166;2024-03-02T03:57:41;8.80;55.30
14101;DHT22;7127;49.372;8.166;2024-03-02T04:00:08;8.70;55.00
14101;DHT22;7127;49.372;8.166;2024-03-02T04:02:36;8.70;55.10
14101;DHT22;7127;49.372;8.166;2024-03-02T04:05:05;8.70;55.30
14101;DHT22;7127;49.372;8.166;2024-03-02T04:07:35;8.70;55.00
14101;DHT22;7127;49.372;8.166;2024-03-02T04:10:07;8.60;55.30
14101;DHT22;7127;49.372;8.166;2024-03-02T04:12:34;8.60;55.00
14101;DHT22;7127;49.372;8.166;2024-03-02T04:15:01;8.50;54.80
14101;DHT22;7127;49.372;8.166;2024-03-02T04:17:30;8.50;54.70
14101;DHT22;7127;49.372;8.166;2024-03-02T04:19:57;8.40;54.60
14101;DHT22;7127;49.372;8.166;2024-03-02T04:22:26;8.40;54.50
14101;DHT22;7127;49.372;8.166;2024-03-02T04:24:53;8.40;54.50
14101;DHT22;7127;49.372;8.166;2024-03-02T04:27:20;8.30;54.50
14101;DHT22;7127;49.372;8.166;2024-03-02T04:29:46;8.30;54.60
14101;DHT22;7127;49.372;8.166;2024-03-02T04:32:13;8.20;54.80
14101;DHT22;7127;49.372;8.166;2024-03-02T04:34:40;8.20;54.80
14101;DHT22;7127;49.372;8.166;2024-03-02T04:37:08;8.20;54.90
14101;DHT22;7127;49.372;8.166;2024-03-02T04:39:36;8.10;55.10
14101;DHT22;7127;49.372;8.166;2024-03-02T04:42:02;8.10;55.80
14101;DHT22;7127;49.372;8.166;2024-03-02T04:44:29;8.10;55.60
14101;DHT22;7127;49.372;8.166;2024-03-02T04:46:56;8.10;55.90
14101;DHT22;7127;49.372;8.166;2024-03-02T04:49:23;8.10;56.90
14101;DHT22;7127;49.372;8.166;2024-03-02T04:51:50;8.10;56.40
14101;DHT22;7127;49.372;8.166;2024-03-02T04:54:17;8.10;56.40
14101;DHT22;7127;49.372;8.166;2024-03-02T04:56:45;8.20;56.60
14101;DHT22;7127;49.372;8.166;2024-03-02T04:59:15;8.20;56.70
14101;DHT22;7127;49.372;8.166;2024-03-02T05:01:42;8.20;56.60
14101;DHT22;7127;49.372;8.166;2024-03-02T05:04:09;8.30;57.00
14101;DHT22;7127;49.372;8.166;2024-03-02T05:06:37;8.40;57.00
14101;DHT22;7127;49.372;8.166;2024-03-02T05:09:04;8.40;57.10
14101;DHT22;7127;49.372;8.166;2024-03-02T05:11:31;8.50;57.20
14101;DHT22;7127;49.372;8.166;2024-03-02T05:14:17;8.60;57.30
14101;DHT22;7127;49.372;8.166;2024-03-02T05:16:44;8.60;57.40
14101;DHT22;7127;49.372;8.166;2024-03-02T05:19:10;8.70;57.30
14101;DHT22;7127;49.372;8.166;2024-03-02T05:21:37;8.80;57.50
14101;DHT22;7127;49.372;8.166;2024-03-02T05:24:04;8.80;57.50
14101;DHT22;7127;49.372;8.166;2024-03-02T05:26:31;8.90;57.20
14101;DHT22;7127;49.372;8.166;2024-03-02T05:28:58;9.00;57.30
14101;DHT22;7127;49.372;8.166;2024-03-02T05:31:26;9.00;57.40
14101;DHT22;7127;49.372;8.166;2024-03-02T05:33:53;9.10;57.40
14101;DHT22;7127;49.372;8.166;2024-03-02T05:36:19;9.20;57.40
14101;DHT22;7127;49.372;8.166;2024-03-02T05:38:47;9.30;57.40
14101;DHT22;7127;49.372;8.166;2024-03-02T05:41:13;9.30;57.40
14101;DHT22;7127;49.372;8.166;2024-03-02T05:43:40;9.40;57.50
14101;DHT22;7127;49.372;8.166;2024-03-02T05:46:07;9.30;57.50
14101;DHT22;7127;49.372;8.166;2024-03-02T05:48:35;9.40;57.40
14101;DHT22;7127;49.372;8.166;2024-03-02T05:51:02;9.40;57.30
14101;DHT22;7127;49.372;8.166;2024-03-02T05:53:29;9.50;57.40
14101;DHT22;7127;49.372;8.166;2024-03-02T05:55:56;9.50;57.20
14101;DHT22;7127;49.372;8.166;2024-03-02T05:58:23;9.50;57.20
14101;DHT22;7127;49.372;8.166;2024-03-02T06:01:03;9.60;57.20
14101;DHT22;7127;49.372;8.166;2024-03-02T06:03:30;9.60;57.20
14101;DHT22;7127;49.372;8.166;2024-03-02T06:05:58;9.60;57.10
14101;DHT22;7127;49.372;8.166;2024-03-02T06:08:25;9.70;57.00
14101;DHT22;7127;49.372;8.166;2024-03-02T06:10:51;9.70;57.10
14101;DHT22;7127;49.372;8.166;2024-03-02T06:13:18;9.70;57.00
14101;DHT22;7127;49.372;8.166;2024-03-02T06:15:45;9.80;57.10
14101;DHT22;7127;49.372;8.166;2024-03-02T06:18:12;9.80;57.00
14101;DHT22;7127;49.372;8.166;2024-03-02T06:20:38;9.80;56.90
14101;DHT22;7127;49.372;8.166;2024-03-02T06:23:07;9.80;56.90
14101;DHT22;7127;49.372;8.166;2024-03-02T06:25:33;9.80;56.90
14101;DHT22;7127;49.372;8.166;2024-03-02T06:28:00;9.90;57.00
14101;DHT22;7127;49.372;8.166;2024-03-02T06:30:27;9.90;57.10
14101;DHT22;7127;49.372;8.166;2024-03-02T06:32:54;9.90;56.90
14101;DHT22;7127;49.372;8.166;2024-03-02T06:35:20;9.90;57.00
14101;DHT22;7127;49.372;8.166;2024-03-02T06:37:47;9.90;57.00
14101;DHT22;7127;49.372;8.166;2024-03-02T06:40:15;10.10;56.30
14101;DHT22;7127;49.372;8.166;2024-03-02T06:42:42;10.00;56.20
14101;DHT22;7127;49.372;8.166;2024-03-02T06:45:09;10.00;56.30
14101;DHT22;7127;49.372;8.166;2024-03-02T06:47:35;10.10;56.30
14101;DHT22;7127;49.372;8.166;2024-03-02T06:50:02;10.10;56.30
14101;DHT22;7127;49.372;8.166;2024-03-02T06:52:30;10.10;56.40
14101;DHT22;7127;49.372;8.166;2024-03-02T06:54:56;10.10;56.20
14101;DHT22;7127;49.372;8.166;2024-03-02T06:57:25;10.20;56.10
14101;DHT22;7127;49.372;8.166;2024-03-02T06:59:52;10.20;56.20
14101;DHT22;7127;49.372;8.166;2024-03-02T07:02:20;10.20;56.20
14101;DHT22;7127;49.372;8.166;2024-03-02T07:04:48;10.20;56.20
14101;DHT22;7127;49.372;8.166;2024-03-02T07:07:16;10.30;56.20
14101;DHT22;7127;49.372;8.166;2024-03-02T07:09:43;10.30;56.20
14101;DHT22;7127;49.372;8.166;2024-03-02T07:12:10;10.30;56.20
14101;DHT22;7127;49.372;8.166;2024-03-02T07:14:38;10.40;56.30
14101;DHT22;7127;49.372;8.166;2024-03-02T07:17:24;10.40;56.20
14101;DHT22;7127;49.372;8.166;2024-03-02T07:19:51;10.40;56.10
14101;DHT22;7127;49.372;8.166;2024-03-02T07:22:18;10.50;56.20
14101;DHT22;7127;49.372;8.166;2024-03-02T07:24:45;10.50;56.30
14101;DHT22;7127;49.372;8.166;2024-03-02T07:27:12;10.60;56.50
14101;DHT22;7127;49.372;8.166;2024-03-02T07:29:41;10.60;57.10
14101;DHT22;7127;49.372;8.166;2024-03-02T07:32:09;10.60;56.40
14101;DHT22;7127;49.372;8.166;2024-03-02T07:34:35;10.70;56.40
14101;DHT22;7127;49.372;8.166;2024-03-02T07:37:03;10.80;56.30
14101;DHT22;7127;49.372;8.166;2024-03-02T07:39:30;10.80;56.30
14101;DHT22;7127;49.372;8.166;2024-03-02T07:41:57;10.80;56.30
14101;DHT22;7127;49.372;8.166;2024-03-02T07:44:24;10.90;56.40
14101;DHT22;7127;49.372;8.166;2024-03-02T07:46:52;10.90;56.30
14101;DHT22;7127;49.372;8.166;2024-03-02T07:49:19;11.00;56.30
14101;DHT22;7127;49.372;8.166;2024-03-02T07:51:45;11.00;56.20
14101;DHT22;7127;49.372;8.166;2024-03-02T07:54:12;11.00;56.20
14101;DHT22;7127;49.372;8.166;2024-03-02T07:56:39;11.10;56.20
14101;DHT22;7127;49.372;8.166;2024-03-02T07:59:06;11.20;56.20
14101;DHT22;7127;49.372;8.166;2024-03-02T08:01:33;11.20;56.00
14101;DHT22;7127;49.372;8.166;2024-03-02T08:04:01;11.20;55.90
14101;DHT22;7127;49.372;8.166;2024-03-02T08:06:29;11.30;55.90
14101;DHT22;7127;49.372;8.166;2024-03-02T08:08:57;11.40;56.00
14101;DHT22;7127;49.372;8.166;2024-03-02T08:11:24;11.40;56.00
14101;DHT22;7127;49.372;8.166;2024-03-02T08:13:52;11.50;55.90
14101;DHT22;7127;49.372;8.166;2024-03-02T08:16:20;11.50;55.60
14101;DHT22;7127;49.372;8.166;2024-03-02T08:18:47;11.50;55.40
14101;DHT22;7127;49.372;8.166;2024-03-02T08:21:16;11.60;55.50
14101;DHT22;7127;49.372;8.166;2024-03-02T08:23:43;11.60;55.50
14101;DHT22;7127;49.372;8.166;2024-03-02T08:26:10;11.70;55.50
14101;DHT22;7127;49.372;8.166;2024-03-02T08:28:37;11.70;55.60
14101;DHT22;7127;49.372;8.166;2024-03-02T08:31:06;11.80;55.60
14101;DHT22;7127;49.372;8.166;2024-03-02T08:33:32;11.80;55.60
14101;DHT22;7127;49.372;8.166;2024-03-02T08:36:00;12.10;55.80
14101;DHT22;7127;49.372;8.166;2024-03-02T08:38:28;12.00;55.60
14101;DHT22;7127;49.372;8.166;2024-03-02T08:40:55;12.00;55.60
14101;DHT22;7127;49.372;8.166;2024-03-02T08:43:22;12.10;55.70
14101;DHT22;7127;49.372;8.166;2024-03-02T08:45:49;12.20;55.60
14101;DHT22;7127;49.372;8.166;2024-03-02T08:48:16;12.30;55.50
14101;DHT22;7127;49.372;8.166;2024-03-02T08:50:43;12.30;55.40
14101;DHT22;7127;49.372;8.166;2024-03-02T08:53:10;12.40;55.40
14101;DHT22;7127;49.372;8.166;2024-03-02T08:55:38;12.50;55.40
14101;DHT22;7127;49.372;8.166;2024-03-02T08:58:06;12.50;55.20
14101;DHT22;7127;49.372;8.166;2024-03-02T09:00:33;12.60;55.00
14101;DHT22;7127;49.372;8.166;2024-03-02T09:03:00;12.60;54.80
14101;DHT22;7127;49.372;8.166;2024-03-02T09:05:26;12.70;54.80
14101;DHT22;7127;49.372;8.166;2024-03-02T09:07:53;12.70;54.80
14101;DHT22;7127;49.372;8.166;2024-03-02T09:10:20;12.80;54.90
14101;DHT22;7127;49.372;8.166;2024-03-02T09:12:49;12.80;54.90
14101;DHT22;7127;49.372;8.166;2024-03-02T09:15:16;12.90;54.90
14101;DHT22;7127;49.372;8.166;2024-03-02T09:17:42;12.90;54.80
14101;DHT22;7127;49.372;8.166;2024-03-02T09:20:10;13.00;54.70
14101;DHT22;7127;49.372;8.166;2024-03-02T09:22:38;13.00;54.70
14101;DHT22;7127;49.372;8.166;2024-03-02T09:25:05;13.00;54.50
14101;DHT22;7127;49.372;8.166;2024-03-02T09:27:36;13.10;54.50
14101;DHT22;7127;49.372;8.166;2024-03-02T09:30:06;13.10;54.40
14101;DHT22;7127;49.372;8.166;2024-03-02T09:32:34;13.10;54.40
14101;DHT22;7127;49.372;8.166;2024-03-02T09:35:00;13.10;54.40
14101;DHT22;7127;49.372;8.166;2024-03-02T09:37:27;13.20;54.50
14101;DHT22;7127;49.372;8.166;2024-03-02T09:39:54;13.20;54.40
14101;DHT22;7127;49.372;8.166;2024-03-02T09:42:21;13.20;54.40
14101;DHT22;7127;49.372;8.166;2024-03-02T09:44:48;13.20;54.30
14101;DHT22;7127;49.372;8.166;2024-03-02T09:47:16;13.30;54.30
14101;DHT22;7127;49.372;8.166;2024-03-02T09:49:43;13.30;54.30
14101;DHT22;7127;49.372;8.166;2024-03-02T09:52:10;13.30;54.40
14101;DHT22;7127;49.372;8.166;2024-03-02T09:54:37;13.40;54.80
14101;DHT22;7127;49.372;8.166;2024-03-02T09:57:04;13.40;54.50
14101;DHT22;7127;49.372;8.166;2024-03-02T09:59:31;13.50;54.60
14101;DHT22;7127;49.372;8.166;2024-03-02T10:01:58;13.60;54.70
14101;DHT22;7127;49.372;8.166;2024-03-02T10:04:28;13.60;54.80
14101;DHT22;7127;49.372;8.166;2024-03-02T10:07:14;13.80;54.80
14101;DHT22;7127;49.372;8.166;2024-03-02T10:09:41;13.80;54.50
14101;DHT22;7127;49.372;8.166;2024-03-02T10:12:09;13.90;54.80
14101;DHT22;7127;49.372;8.166;2024-03-02T10:14:36;14.00;54.80
14101;DHT22;7127;49.372;8.166;2024-03-02T10:17:05;14.40;55.00
14101;DHT22;7127;49.372;8.166;2024-03-02T10:19:33;14.20;54.80
14101;DHT22;7127;49.372;8.166;2024-03-02T10:22:03;14.40;54.70
14101;DHT22;7127;49.372;8.166;2024-03-02T10:24:36;14.40;54.40
14101;DHT22;7127;49.372;8.166;2024-03-02T10:27:08;14.50;54.20
14101;DHT22;7127;49.372;8.166;2024-03-02T10:29:39;14.60;54.20
14101;DHT22;7127;49.372;8.166;2024-03-02T10:32:09;14.70;54.10
14101;DHT22;7127;49.372;8.166;2024-03-02T10:34:40;14.70;53.90
14101;DHT22;7127;49.372;8.166;2024-03-02T10:37:07;14.80;53.80
14101;DHT22;7127;49.372;8.166;2024-03-02T10:39:34;14.80;53.80
14101;DHT22;7127;49.372;8.166;2024-03-02T10:42:03;14.90;53.80
14101;DHT22;7127;49.372;8.166;2024-03-02T10:44:31;15.00;53.90
14101;DHT22;7127;49.372;8.166;2024-03-02T10:47:00;15.00;53.60
14101;DHT22;7127;49.372;8.166;2024-03-02T10:49:29;15.00;53.50
14101;DHT22;7127;49.372;8.166;2024-03-02T10:51:57;15.20;53.60
14101;DHT22;7127;49.372;8.166;2024-03-02T10:54:24;15.20;53.40
14101;DHT22;7127;49.372;8.166;2024-03-02T10:56:56;15.30;53.40
14101;DHT22;7127;49.372;8.166;2024-03-02T10:59:27;15.40;53.20
14101;DHT22;7127;49.372;8.166;2024-03-02T11:01:58;15.40;52.90
14101;DHT22;7127;49.372;8.166;2024-03-02T11:04:26;15.50;52.80
14101;DHT22;7127;49.372;8.166;2024-03-02T11:06:58;15.50;52.40
14101;DHT22;7127;49.372;8.166;2024-03-02T11:09:27;15.50;51.90
14101;DHT22;7127;49.372;8.166;2024-03-02T11:12:00;15.60;51.80
14101;DHT22;7127;49.372;8.166;2024-03-02T11:14:30;15.60;51.60
14101;DHT22;7127;49.372;8.166;2024-03-02T11:16:59;15.60;51.40
14101;DHT22;7127;49.372;8.166;2024-03-02T11:19:27;15.60;51.40
14101;DHT22;7127;49.372;8.166;2024-03-02T11:21:54;15.50;51.40
14101;DHT22;7127;49.372;8.166;2024-03-02T11:24:35;15.60;51.30
14101;DHT22;7127;49.372;8.166;2024-03-02T11:27:03;15.70;50.90
14101;DHT22;7127;49.372;8.166;2024-03-02T11:29:47;15.70;51.10
14101;DHT22;7127;49.372;8.166;2024-03-02T11:32:20;15.80;50.90
14101;DHT22;7127;49.372;8.166;2024-03-02T11:34:49;15.70;51.00
14101;DHT22;7127;49.372;8.166;2024-03-02T11:37:38;15.70;51.00
14101;DHT22;7127;49.372;8.166;2024-03-02T11:40:10;15.70;50.70
14101;DHT22;7127;49.372;8.166;2024-03-02T11:42:52;15.80;51.10
14101;DHT22;7127;49.372;8.166;2024-03-02T11:45:22;15.80;51.30
14101;DHT22;7127;49.372;8.166;2024-03-02T11:47:50;15.50;51.00
14101;DHT22;7127;49.372;8.166;2024-03-02T11:50:28;15.90;51.30
14101;DHT22;7127;49.372;8.166;2024-03-02T11:52:55;16.00;51.10
14101;DHT22;7127;49.372;8.166;2024-03-02T11:55:25;16.00;51.30
14101;DHT22;7127;49.372;8.166;2024-03-02T11:57:52;16.20;51.30
14101;DHT22;7127;49.372;8.166;2024-03-02T12:00:20;16.70;51.90
14101;DHT22;7127;49.372;8.166;2024-03-02T12:02:47;16.20;51.50
14101;DHT22;7127;49.372;8.166;2024-03-02T12:05:26;16.30;51.50
14101;DHT22;7127;49.372;8.166;2024-03-02T12:07:56;16.40;51.60
14101;DHT22;7127;49.372;8.166;2024-03-02T12:10:24;16.50;51.60
14101;DHT22;7127;49.372;8.166;2024-03-02T12:12:57;16.60;51.60
14101;DHT22;7127;49.372;8.166;2024-03-02T12:15:25;16.70;51.30
14101;DHT22;7127;49.372;8.166;2024-03-02T12:17:54;16.80;51.50
14101;DHT22;7127;49.372;8.166;2024-03-02T12:20:21;16.90;51.50
14101;DHT22;7127;49.372;8.166;2024-03-02T12:22:49;17.00;51.30
14101;DHT22;7127;49.372;8.166;2024-03-02T12:25:18;17.10;51.20
14101;DHT22;7127;49.372;8.166;2024-03-02T12:27:47;17.40;51.20
14101;DHT22;7127;49.372;8.166;2024-03-02T12:30:14;17.20;50.50
14101;DHT22;7127;49.372;8.166;2024-03-02T12:32:42;17.20;50.60
14101;DHT22;7127;49.372;8.166;2024-03-02T12:35:10;17.30;50.40
14101;DHT22;7127;49.372;8.166;2024-03-02T12:37:43;17.50;50.30
14101;DHT22;7127;49.372;8.166;2024-03-02T12:40:10;17.40;49.90
14101;DHT22;7127;49.372;8.166;2024-03-02T12:42:38;17.60;50.10
14101;DHT22;7127;49.372;8.166;2024-03-02T12:45:07;17.40;49.80
14101;DHT22;7127;49.372;8.166;2024-03-02T12:47:34;17.50;49.40
14101;DHT22;7127;49.372;8.166;2024-03-02T12:50:02;17.60;49.30
14101;DHT22;7127;49.372;8.166;2024-03-02T12:52:29;17.60;49.20
14101;DHT22;7127;49.372;8.166;2024-03-02T12:54:56;17.60;49.30
14101;DHT22;7127;49.372;8.166;2024-03-02T12:57:26;17.50;49.00
14101;DHT22;7127;49.372;8.166;2024-03-02T12:59:58;17.50;48.90
14101;DHT22;7127;49.372;8.166;2024-03-02T13:02:27;17.50;48.70
14101;DHT22;7127;49.372;8.166;2024-03-02T13:04:55;17.40;48.60
14101;DHT22;7127;49.372;8.166;2024-03-02T13:07:23;17.40;48.70
14101;DHT22;7127;49.372;8.166;2024-03-02T13:09:50;17.40;48.70
14101;DHT22;7127;49.372;8.166;2024-03-02T13:12:18;17.40;48.40
14101;DHT22;7127;49.372;8.166;2024-03-02T13:14:48;17.40;48.20
14101;DHT22;7127;49.372;8.166;2024-03-02T13:17:15;17.40;48.40
14101;DHT22;7127;49.372;8.166;2024-03-02T13:19:51;17.30;48.40
14101;DHT22;7127;49.372;8.166;2024-03-02T13:22:18;17.30;48.00
14101;DHT22;7127;49.372;8.166;2024-03-02T13:24:44;17.20;48.50
14101;DHT22;7127;49.372;8.166;2024-03-02T13:27:11;17.30;48.70
14101;DHT22;7127;49.372;8.166;2024-03-02T13:29:38;17.20;48.50
14101;DHT22;7127;49.372;8.166;2024-03-02T13:32:05;17.20;48.60
14101;DHT22;7127;49.372;8.166;2024-03-02T13:34:32;17.20;48.60
14101;DHT22;7127;49.372;8.166;2024-03-02T13:37:00;17.20;48.30
14101;DHT22;7127;49.372;8.166;2024-03-02T13:39:27;17.20;48.50
14101;DHT22;7127;49.372;8.166;2024-03-02T13:41:56;17.20;48.50
14101;DHT22;7127;49.372;8.166;2024-03-02T13:44:29;17.20;48.60
14101;DHT22;7127;49.372;8.166;2024-03-02T13:46:56;17.30;48.70
14101;DHT22;7127;49.372;8.166;2024-03-02T13:49:23;17.20;48.50
14101;DHT22;7127;49.372;8.166;2024-03-02T13:51:54;17.20;48.60
14101;DHT22;7127;49.372;8.166;2024-03-02T13:54:23;17.30;48.60
14101;DHT22;7127;49.372;8.166;2024-03-02T13:56:50;17.30;48.50
14101;DHT22;7127;49.372;8.166;2024-03-02T13:59:17;17.30;48.50
14101;DHT22;7127;49.372;8.166;2024-03-02T14:01:42;17.30;48.30
14101;DHT22;7127;49.372;8.166;2024-03-02T14:04:10;17.40;48.40
14101;DHT22;7127;49.372;8.166;2024-03-02T14:06:36;17.40;48.40
14101;DHT22;7127;49.372;8.166;2024-03-02T14:09:03;17.40;48.30
14101;DHT22;7127;49.372;8.166;2024-03-02T14:11:31;17.50;48.20
14101;DHT22;7127;49.372;8.166;2024-03-02T14:13:58;17.40;48.60
14101;DHT22;7127;49.372;8.166;2024-03-02T14:16:25;17.40;48.00
14101;DHT22;7127;49.372;8.166;2024-03-02T14:18:52;17.40;47.90
14101;DHT22;7127;49.372;8.166;2024-03-02T14:21:18;17.40;47.90
14101;DHT22;7127;49.372;8.166;2024-03-02T14:23:45;17.40;47.80
14101;DHT22;7127;49.372;8.166;2024-03-02T14:26:12;17.40;47.60
14101;DHT22;7127;49.372;8.166;2024-03-02T14:28:41;17.40;47.70
14101;DHT22;7127;49.372;8.166;2024-03-02T14:31:07;17.40;47.70
14101;DHT22;7127;49.372;8.166;2024-03-02T14:33:34;17.30;47.50
14101;DHT22;7127;49.372;8.166;2024-03-02T14:36:01;17.30;47.70
14101;DHT22;7127;49.372;8.166;2024-03-02T14:38:29;17.40;47.90
14101;DHT22;7127;49.372;8.166;2024-03-02T14:40:56;17.40;47.90
14101;DHT22;7127;49.372;8.166;2024-03-02T14:43:24;17.30;47.70
14101;DHT22;7127;49.372;8.166;2024-03-02T14:45:52;17.50;47.70
14101;DHT22;7127;49.372;8.166;2024-03-02T14:48:19;17.40;47.50
14101;DHT22;7127;49.372;8.166;2024-03-02T14:50:46;17.40;47.50
14101;DHT22;7127;49.372;8.166;2024-03-02T14:53:12;17.40;47.50
14101;DHT22;7127;49.372;8.166;2024-03-02T14:55:39;17.40;47.60
14101;DHT22;7127;49.372;8.166;2024-03-02T14:58:06;17.40;47.50
14101;DHT22;7127;49.372;8.166;2024-03-02T15:00:33;17.40;47.50
14101;DHT22;7127;49.372;8.166;2024-03-02T15:03:02;17.40;47.60
14101;DHT22;7127;49.372;8.166;2024-03-02T15:05:31;17.40;47.50
14101;DHT22;7127;49.372;8.166;2024-03-02T15:07:57;17.40;47.70
14101;DHT22;7127;49.372;8.166;2024-03-02T15:10:27;17.40;47.70
14101;DHT22;7127;49.372;8.166;2024-03-02T15:12:54;17.40;47.70
14101;DHT22;7127;49.372;8.166;2024-03-02T15:15:21;17.40;47.70
14101;DHT22;7127;49.372;8.166;2024-03-02T15:17:47;17.40;47.70
14101;DHT22;7127;49.372;8.166;2024-03-02T15:20:15;17.40;47.70
14101;DHT22;7127;49.372;8.166;2024-03-02T15:22:42;17.40;47.50
14101;DHT22;7127;49.372;8.166;2024-03-02T15:25:09;17.30;47.40
14101;DHT22;7127;49.372;8.166;2024-03-02T15:27:36;17.30;47.40
14101;DHT22;7127;49.372;8.166;2024-03-02T15:30:03;17.30;47.40
14101;DHT22;7127;49.372;8.166;2024-03-02T15:32:30;17.30;47.20
14101;DHT22;7127;49.372;8.166;2024-03-02T15:34:57;17.10;47.20
14101;DHT22;7127;49.372;8.166;2024-03-02T15:37:26;17.30;47.40
14101;DHT22;7127;49.372;8.166;2024-03-02T15:39:52;17.30;47.50
14101;DHT22;7127;49.372;8.166;2024-03-02T15:42:19;17.30;47.60
14101;DHT22;7127;49.372;8.166;2024-03-02T15:44:48;17.20;47.50
14101;DHT22;7127;49.372;8.166;2024-03-02T15:47:15;17.30;47.50
14101;DHT22;7127;49.372;8.166;2024-03-02T15:49:42;17.30;47.50
14101;DHT22;7127;49.372;8.166;2024-03-02T15:52:10;17.30;47.40
14101;DHT22;7127;49.372;8.166;2024-03-02T15:54:39;17.20;47.40
14101;DHT22;7127;49.372;8.166;2024-03-02T15:57:06;17.20;47.40
14101;DHT22;7127;49.372;8.166;2024-03-02T15:59:33;17.20;47.40